Time;durP1;ratioP1;P1;durP2;ratioP2;P2;SDS_P1;SDS_P2;PMS_P1;PMS_P2;Temp;Humidity;BMP_temperature;BMP_pressure;BME280_temperature;BME280_humidity;BME280_pressure;Samples;Min_cycle;Max_cycle;Signal;HPM_P1;HPM_P2
2021/11/28 00:01:17;;;;;;;6.60;2.60;;;;;;;;;;4989958;28;20541;-37
2021/11/28 00:03:44;;;;;;;8.63;3.78;;;;;;;;;;4989502;28;20490;-41
2021/11/28 00:06:27;;;;;;;7.53;3.85;;;;;;;;;;4990198;28;20038;-42
2021/11/28 00:09:19;;;;;;;8.77;2.95;;;;;;;;;;4989194;28;20030;-38
2021/11/28 00:11:57;;;;;;;6.22;3.08;;;;;;;;;;4989531;28;20076;-37
2021/11/28 00:14:24;;;;;;;3.42;2.40;;;;;;;;;;4990198;28;20069;-38
2021/11/28 00:16:51;;;;;;;7.80;3.33;;;;;;;;;;4989680;28;20035;-41
2021/11/28 00:19:18;;;;;;;6.40;3.20;;;;;;;;;;4988857;28;20023;-42
2021/11/28 00:21:45;;;;;;;4.40;3.20;;;;;;;;;;4989662;28;20434;-40
2021/11/28 00:24:12;;;;;;;9.43;5.50;;;;;;;;;;4990521;28;20035;-38
2021/11/28 00:26:39;;;;;;;6.80;4.05;;;;;;;;;;4993470;28;20022;-42
2021/11/28 00:29:08;;;;;;;6.72;3.72;;;;;;;;;;4992044;28;20387;-45
2021/11/28 00:31:35;;;;;;;6.68;3.40;;;;;;;;;;4993360;28;20131;-38
2021/11/28 00:34:02;;;;;;;14.00;6.65;;;;;;;;;;4983719;28;20018;-39
2021/11/28 00:36:29;;;;;;;9.68;5.13;;;;;;;;;;4983465;28;20427;-38
2021/11/28 00:38:56;;;;;;;7.22;4.72;;;;;;;;;;4981935;28;20061;-37
2021/11/28 00:41:23;;;;;;;7.30;4.07;;;;;;;;;;4982359;28;20541;-37
2021/11/28 00:43:51;;;;;;;11.00;5.10;;;;;;;;;;4981502;28;20030;-37
2021/11/28 00:46:18;;;;;;;12.93;5.57;;;;;;;;;;4984400;28;20066;-37
2021/11/28 00:48:45;;;;;;;14.70;7.90;;;;;;;;;;4985704;28;20085;-36
2021/11/28 00:53:46;;;;;;;12.95;6.95;;;;;;;;;;4979212;28;20296;-38
2021/11/28 00:56:13;;;;;;;11.73;6.78;;;;;;;;;;4980746;28;20033;-38
2021/11/28 00:58:40;;;;;;;11.38;6.30;;;;;;;;;;4982192;28;20057;-39
2021/11/28 01:01:07;;;;;;;13.23;6.93;;;;;;;;;;4980907;28;20046;-41
2021/11/28 01:03:34;;;;;;;14.95;7.90;;;;;;;;;;4981967;28;20114;-41
2021/11/28 01:06:01;;;;;;;13.68;7.85;;;;;;;;;;4982159;28;20509;-42
2021/11/28 01:08:28;;;;;;;10.40;7.43;;;;;;;;;;4979832;28;20126;-36
2021/11/28 01:10:56;;;;;;;9.27;6.53;;;;;;;;;;4982699;28;20030;-40
2021/11/28 01:13:23;;;;;;;10.43;6.63;;;;;;;;;;4975480;28;20022;-44
2021/11/28 01:15:50;;;;;;;14.95;6.40;;;;;;;;;;4974889;28;20798;-41
2021/11/28 01:18:17;;;;;;;8.88;5.95;;;;;;;;;;4971639;28;20351;-44
2021/11/28 01:20:44;;;;;;;10.60;5.85;;;;;;;;;;4976343;28;20436;-42
2021/11/28 01:23:11;;;;;;;14.30;7.68;;;;;;;;;;4979743;28;20433;-43
2021/11/28 01:25:38;;;;;;;15.75;9.20;;;;;;;;;;4974523;28;20030;-43
2021/11/28 01:28:05;;;;;;;15.48;8.63;;;;;;;;;;4971755;28;20019;-42
2021/11/28 01:30:32;;;;;;;15.50;8.70;;;;;;;;;;4972146;28;20022;-42
2021/11/28 01:32:59;;;;;;;18.98;8.63;;;;;;;;;;4972089;28;20026;-44
2021/11/28 01:35:25;;;;;;;15.05;7.18;;;;;;;;;;4979791;28;20051;-45
2021/11/28 01:37:53;;;;;;;10.48;6.10;;;;;;;;;;4980550;28;20090;-43
2021/11/28 01:40:21;;;;;;;12.65;5.55;;;;;;;;;;4980709;28;20022;-45
2021/11/28 01:42:50;;;;;;;10.05;4.38;;;;;;;;;;4977330;28;20417;-43
2021/11/28 01:45:23;;;;;;;8.27;4.13;;;;;;;;;;4973395;28;20053;-49
2021/11/28 01:47:50;;;;;;;8.65;3.78;;;;;;;;;;4974775;28;20026;-42
2021/11/28 01:50:17;;;;;;;9.15;4.03;;;;;;;;;;4981612;28;20026;-46
2021/11/28 01:52:44;;;;;;;8.40;3.53;;;;;;;;;;4971913;28;20522;-40
2021/11/28 01:55:15;;;;;;;8.30;3.22;;;;;;;;;;4997530;28;20030;-43
2021/11/28 01:57:43;;;;;;;9.65;2.83;;;;;;;;;;4982953;28;20030;-41
2021/11/28 02:00:12;;;;;;;7.13;2.70;;;;;;;;;;4981986;28;20030;-43
2021/11/28 02:02:39;;;;;;;7.90;3.60;;;;;;;;;;4992148;28;20083;-40
2021/11/28 02:05:06;;;;;;;7.35;3.33;;;;;;;;;;4973591;28;20046;-43
2021/11/28 02:07:33;;;;;;;8.40;2.80;;;;;;;;;;4971020;28;20474;-41
2021/11/28 02:10:01;;;;;;;9.15;3.50;;;;;;;;;;4970410;28;20031;-38
2021/11/28 02:12:29;;;;;;;7.82;3.90;;;;;;;;;;4973757;28;20106;-40
2021/11/28 02:15:00;;;;;;;8.93;3.85;;;;;;;;;;4970677;28;20026;-36
2021/11/28 02:17:27;;;;;;;7.90;4.20;;;;;;;;;;4971462;28;20039;-42
2021/11/28 02:19:54;;;;;;;13.70;4.70;;;;;;;;;;4970157;28;20023;-43
2021/11/28 02:22:22;;;;;;;7.72;4.50;;;;;;;;;;4973792;28;20019;-37
2021/11/28 02:24:49;;;;;;;10.98;4.40;;;;;;;;;;4970486;28;20093;-38
2021/11/28 02:27:16;;;;;;;8.07;4.32;;;;;;;;;;4971453;28;20027;-39
2021/11/28 02:29:44;;;;;;;8.55;4.40;;;;;;;;;;4996537;28;20043;-39
2021/11/28 02:32:11;;;;;;;11.57;5.10;;;;;;;;;;4981682;28;20026;-39
2021/11/28 02:34:38;;;;;;;30.10;9.45;;;;;;;;;;4978795;28;20022;-38
2021/11/28 02:37:05;;;;;;;31.92;9.82;;;;;;;;;;4980565;28;20023;-45
2021/11/28 02:39:33;;;;;;;43.70;12.40;;;;;;;;;;4979396;28;20165;-38
2021/11/28 02:42:01;;;;;;;44.78;13.88;;;;;;;;;;4980328;28;20364;-40
2021/11/28 02:44:28;;;;;;;47.72;14.05;;;;;;;;;;4981088;28;20034;-38
2021/11/28 02:46:55;;;;;;;51.25;15.65;;;;;;;;;;4981266;28;20018;-40
2021/11/28 02:49:22;;;;;;;47.72;12.80;;;;;;;;;;4980591;28;20521;-38
2021/11/28 02:51:49;;;;;;;43.70;12.43;;;;;;;;;;4973490;28;20110;-43
2021/11/28 02:54:16;;;;;;;33.40;11.70;;;;;;;;;;4975902;28;20518;-38
2021/11/28 02:56:45;;;;;;;46.60;13.55;;;;;;;;;;4979225;28;20031;-38
2021/11/28 02:59:13;;;;;;;34.80;12.05;;;;;;;;;;4979755;28;20018;-37
2021/11/28 03:01:40;;;;;;;34.67;10.95;;;;;;;;;;4979919;28;20051;-38
2021/11/28 03:04:07;;;;;;;29.25;10.48;;;;;;;;;;4980798;28;20022;-39
2021/11/28 03:06:37;;;;;;;27.73;9.95;;;;;;;;;;4981032;28;20057;-38
2021/11/28 03:09:05;;;;;;;26.95;8.40;;;;;;;;;;4979588;28;20085;-38
2021/11/28 03:11:32;;;;;;;26.10;9.10;;;;;;;;;;4980445;28;20025;-37
2021/11/28 03:13:59;;;;;;;23.38;8.07;;;;;;;;;;4973987;28;20467;-40
2021/11/28 03:16:26;;;;;;;19.70;8.63;;;;;;;;;;4979532;28;20487;-37
2021/11/28 03:18:54;;;;;;;23.20;8.80;;;;;;;;;;4972653;28;20114;-36
2021/11/28 03:21:22;;;;;;;20.02;7.32;;;;;;;;;;4985818;28;20064;-37
2021/11/28 03:23:51;;;;;;;26.70;8.15;;;;;;;;;;4981942;28;20085;-37
2021/11/28 03:26:34;;;;;;;21.73;7.53;;;;;;;;;;4979659;28;20517;-39
2021/11/28 03:29:06;;;;;;;18.98;6.95;;;;;;;;;;4978821;28;20105;-38
2021/11/28 03:31:35;;;;;;;18.10;6.38;;;;;;;;;;4981586;28;20101;-36
2021/11/28 03:34:03;;;;;;;18.92;6.53;;;;;;;;;;4974939;28;20068;-38
2021/11/28 03:36:31;;;;;;;23.48;7.18;;;;;;;;;;4970564;28;20015;-37
2021/11/28 03:38:58;;;;;;;22.98;7.15;;;;;;;;;;4984997;28;20438;-43
2021/11/28 03:41:26;;;;;;;16.38;7.35;;;;;;;;;;4982094;28;20393;-38
2021/11/28 03:43:54;;;;;;;21.85;7.72;;;;;;;;;;5010345;28;20053;-38
2021/11/28 03:46:21;;;;;;;16.50;7.50;;;;;;;;;;5009849;28;20034;-38
2021/11/28 03:48:54;;;;;;;16.00;6.50;;;;;;;;;;5003418;28;20065;-38
2021/11/28 03:51:21;;;;;;;14.73;7.03;;;;;;;;;;5009761;28;20424;-44
2021/11/28 03:53:48;;;;;;;15.05;7.00;;;;;;;;;;5024677;28;20497;-38
2021/11/28 03:56:15;;;;;;;15.50;7.60;;;;;;;;;;4980343;28;20487;-39
2021/11/28 03:58:42;;;;;;;15.93;6.40;;;;;;;;;;4973422;28;20526;-41
2021/11/28 04:01:11;;;;;;;15.40;7.35;;;;;;;;;;4973623;28;20574;-38
2021/11/28 04:03:38;;;;;;;13.45;7.03;;;;;;;;;;4974198;28;20300;-40
2021/11/28 04:06:05;;;;;;;15.02;7.32;;;;;;;;;;4974414;28;20089;-40
2021/11/28 04:08:32;;;;;;;14.32;8.15;;;;;;;;;;4974532;28;20046;-47
2021/11/28 04:10:59;;;;;;;15.50;8.00;;;;;;;;;;4974030;28;20449;-43
2021/11/28 04:13:27;;;;;;;17.25;8.35;;;;;;;;;;4974408;28;20027;-41
2021/11/28 04:15:54;;;;;;;17.75;7.97;;;;;;;;;;4993737;28;20045;-38
2021/11/28 04:18:21;;;;;;;14.13;6.63;;;;;;;;;;4993508;28;20050;-44
2021/11/28 04:20:48;;;;;;;12.40;6.60;;;;;;;;;;4993478;28;20026;-42
2021/11/28 04:23:16;;;;;;;11.80;6.25;;;;;;;;;;4993080;28;20584;-44
2021/11/28 04:25:43;;;;;;;10.88;5.22;;;;;;;;;;4993211;28;20041;-43
2021/11/28 04:28:10;;;;;;;7.60;4.32;;;;;;;;;;4992592;28;20022;-41
2021/11/28 04:30:37;;;;;;;5.93;3.22;;;;;;;;;;4993418;28;20019;-39
2021/11/28 04:33:04;;;;;;;6.30;2.75;;;;;;;;;;4993172;28;20105;-38
2021/11/28 04:35:31;;;;;;;4.22;2.00;;;;;;;;;;4993270;28;20352;-39
2021/11/28 04:37:58;;;;;;;4.97;1.60;;;;;;;;;;4993150;28;20023;-45
2021/11/28 04:40:26;;;;;;;5.50;1.40;;;;;;;;;;4993397;28;20034;-44
2021/11/28 04:42:52;;;;;;;5.05;1.27;;;;;;;;;;4993725;28;20037;-40
2021/11/28 04:45:19;;;;;;;1.98;1.02;;;;;;;;;;4992903;28;20070;-40
2021/11/28 04:47:46;;;;;;;3.72;1.13;;;;;;;;;;4993642;28;20023;-44
2021/11/28 04:50:14;;;;;;;3.35;0.82;;;;;;;;;;4992555;28;20077;-44
2021/11/28 04:52:42;;;;;;;1.50;0.90;;;;;;;;;;4993238;28;20026;-39
2021/11/28 04:55:09;;;;;;;2.38;1.00;;;;;;;;;;4992369;28;20034;-41
2021/11/28 04:57:36;;;;;;;4.25;1.15;;;;;;;;;;4992926;28;20065;-43
2021/11/28 05:00:07;;;;;;;1.90;0.90;;;;;;;;;;4993263;28;20023;-43
2021/11/28 05:02:34;;;;;;;3.15;0.90;;;;;;;;;;4992021;28;20065;-40
2021/11/28 05:05:01;;;;;;;1.80;1.00;;;;;;;;;;4993019;28;20057;-38
2021/11/28 05:07:28;;;;;;;2.05;0.80;;;;;;;;;;4992205;28;20549;-39
2021/11/28 05:09:55;;;;;;;4.15;1.05;;;;;;;;;;4992363;28;20042;-39
2021/11/28 05:12:22;;;;;;;4.22;0.77;;;;;;;;;;4992356;28;20041;-42
2021/11/28 05:14:51;;;;;;;2.20;0.88;;;;;;;;;;4992372;28;20470;-38
2021/11/28 05:17:19;;;;;;;1.60;0.77;;;;;;;;;;4992270;28;20076;-43
2021/11/28 05:19:46;;;;;;;1.42;0.73;;;;;;;;;;4991752;28;20045;-40
2021/11/28 05:22:13;;;;;;;1.58;0.80;;;;;;;;;;4990787;28;20113;-45
2021/11/28 05:24:40;;;;;;;1.70;0.80;;;;;;;;;;4991020;28;20047;-44
2021/11/28 05:27:07;;;;;;;2.92;0.68;;;;;;;;;;4992849;28;20046;-42
2021/11/28 05:29:35;;;;;;;1.27;0.73;;;;;;;;;;4992346;28;20027;-41
2021/11/28 05:32:02;;;;;;;1.65;0.75;;;;;;;;;;4992305;28;20494;-40
2021/11/28 05:34:29;;;;;;;2.72;0.60;;;;;;;;;;4992167;28;20463;-37
2021/11/28 05:36:56;;;;;;;2.10;0.80;;;;;;;;;;4992504;28;20030;-38
2021/11/28 05:39:23;;;;;;;2.13;0.70;;;;;;;;;;4992451;28;20022;-38
2021/11/28 05:41:50;;;;;;;3.65;1.05;;;;;;;;;;4992629;28;20112;-38
2021/11/28 05:44:17;;;;;;;2.72;0.65;;;;;;;;;;4991399;28;20031;-38
2021/11/28 05:46:44;;;;;;;2.65;0.77;;;;;;;;;;4992553;28;20446;-37
2021/11/28 05:49:11;;;;;;;1.55;0.50;;;;;;;;;;4991279;28;20435;-36
2021/11/28 05:51:38;;;;;;;1.33;0.52;;;;;;;;;;4992369;28;20032;-38
2021/11/28 05:54:05;;;;;;;1.60;0.60;;;;;;;;;;4992063;28;20034;-37
2021/11/28 05:56:32;;;;;;;2.00;0.70;;;;;;;;;;4991847;28;20084;-38
2021/11/28 05:58:59;;;;;;;1.52;0.50;;;;;;;;;;4992089;28;20039;-38
2021/11/28 06:01:26;;;;;;;2.58;0.70;;;;;;;;;;4991657;28;20082;-37
2021/11/28 06:03:53;;;;;;;3.53;0.82;;;;;;;;;;4991465;28;20025;-38
2021/11/28 06:06:20;;;;;;;4.30;0.60;;;;;;;;;;4991436;28;20053;-39
2021/11/28 06:08:47;;;;;;;2.47;0.70;;;;;;;;;;4992343;28;20537;-38
2021/11/28 06:11:14;;;;;;;3.92;0.60;;;;;;;;;;4991516;28;20569;-37
2021/11/28 06:13:41;;;;;;;1.50;0.50;;;;;;;;;;4991181;28;20019;-39
2021/11/28 06:16:08;;;;;;;5.47;0.70;;;;;;;;;;4991455;28;20026;-38
2021/11/28 06:18:35;;;;;;;3.13;0.70;;;;;;;;;;4991208;28;20030;-37
2021/11/28 06:21:02;;;;;;;3.13;0.60;;;;;;;;;;4990722;28;20061;-39
2021/11/28 06:23:29;;;;;;;2.05;0.50;;;;;;;;;;4990756;28;20501;-40
2021/11/28 06:25:56;;;;;;;3.13;0.70;;;;;;;;;;4991373;28;20042;-46
2021/11/28 06:28:23;;;;;;;1.05;0.40;;;;;;;;;;4991192;28;20084;-45
2021/11/28 06:30:50;;;;;;;2.38;0.73;;;;;;;;;;4991829;28;20124;-40
2021/11/28 06:33:17;;;;;;;2.20;0.60;;;;;;;;;;4990651;28;20025;-38
2021/11/28 06:35:44;;;;;;;3.38;0.60;;;;;;;;;;4991227;28;20025;-38
2021/11/28 06:38:11;;;;;;;2.60;0.70;;;;;;;;;;4991150;28;20371;-36
2021/11/28 06:40:38;;;;;;;2.55;0.70;;;;;;;;;;4991553;28;20026;-39
2021/11/28 06:43:05;;;;;;;2.33;0.80;;;;;;;;;;4991004;28;20017;-41
2021/11/28 06:45:32;;;;;;;3.30;0.80;;;;;;;;;;4990208;28;20088;-38
2021/11/28 06:47:59;;;;;;;1.92;0.60;;;;;;;;;;4972489;28;20035;-41
2021/11/28 06:50:27;;;;;;;2.78;0.60;;;;;;;;;;4970940;28;20027;-43
2021/11/28 06:52:54;;;;;;;2.40;0.40;;;;;;;;;;4971641;28;20053;-41
2021/11/28 06:55:20;;;;;;;3.88;0.63;;;;;;;;;;4970133;28;20026;-38
2021/11/28 06:57:47;;;;;;;5.40;0.80;;;;;;;;;;4971474;28;20057;-42
2021/11/28 07:00:17;;;;;;;4.18;0.60;;;;;;;;;;4985659;28;20121;-40
2021/11/28 07:02:44;;;;;;;4.53;0.90;;;;;;;;;;4971363;28;20043;-39
2021/11/28 07:05:11;;;;;;;2.67;0.40;;;;;;;;;;4970509;28;20189;-39
2021/11/28 07:07:38;;;;;;;1.30;0.88;;;;;;;;;;4971156;28;20107;-39
2021/11/28 07:10:05;;;;;;;1.20;0.50;;;;;;;;;;4971549;28;20074;-42
2021/11/28 07:12:32;;;;;;;2.63;0.50;;;;;;;;;;4970538;28;20019;-37
2021/11/28 07:14:59;;;;;;;5.20;0.57;;;;;;;;;;4971346;28;20026;-39
2021/11/28 07:17:26;;;;;;;1.42;0.50;;;;;;;;;;4970989;28;20027;-38
2021/11/28 07:19:53;;;;;;;1.92;0.60;;;;;;;;;;4971307;28;20023;-39
2021/11/28 07:22:20;;;;;;;2.25;0.50;;;;;;;;;;4971166;28;20048;-39
2021/11/28 07:24:48;;;;;;;4.70;0.82;;;;;;;;;;4970675;28;20039;-38
2021/11/28 07:27:15;;;;;;;0.98;0.40;;;;;;;;;;4986055;28;20070;-38
2021/11/28 07:29:42;;;;;;;3.28;0.60;;;;;;;;;;4970992;28;20015;-40
2021/11/28 07:32:09;;;;;;;1.00;0.40;;;;;;;;;;4971533;28;20026;-40
2021/11/28 07:34:36;;;;;;;0.73;0.50;;;;;;;;;;4974418;28;20106;-37
2021/11/28 07:37:03;;;;;;;2.47;0.70;;;;;;;;;;4975273;28;20449;-37
2021/11/28 07:39:30;;;;;;;0.88;0.50;;;;;;;;;;4974880;28;20030;-37
2021/11/28 07:41:57;;;;;;;1.77;0.52;;;;;;;;;;4974851;28;20015;-37
2021/11/28 07:44:24;;;;;;;3.42;0.80;;;;;;;;;;4974652;28;20078;-37
2021/11/28 07:46:51;;;;;;;2.97;0.50;;;;;;;;;;4989865;28;20027;-39
2021/11/28 07:49:18;;;;;;;1.05;0.52;;;;;;;;;;4974568;28;20081;-38
2021/11/28 07:51:45;;;;;;;3.28;0.60;;;;;;;;;;4974961;28;20030;-37
2021/11/28 07:54:12;;;;;;;2.60;0.50;;;;;;;;;;4989403;28;20030;-41
2021/11/28 07:56:39;;;;;;;1.27;0.70;;;;;;;;;;4974418;28;20379;-40
2021/11/28 07:59:06;;;;;;;2.35;0.57;;;;;;;;;;4974956;28;20027;-38
2021/11/28 08:01:34;;;;;;;2.38;0.98;;;;;;;;;;4974366;28;20082;-38
2021/11/28 08:04:01;;;;;;;2.30;0.70;;;;;;;;;;4974443;28;20110;-42
2021/11/28 08:06:28;;;;;;;1.92;0.70;;;;;;;;;;4974208;28;20542;-37
2021/11/28 08:08:55;;;;;;;5.60;0.60;;;;;;;;;;4974874;28;20033;-41
2021/11/28 08:11:22;;;;;;;1.83;0.60;;;;;;;;;;4974436;28;20065;-40
2021/11/28 08:13:50;;;;;;;2.22;0.70;;;;;;;;;;4989547;28;20054;-37
2021/11/28 08:16:17;;;;;;;3.20;0.50;;;;;;;;;;4973602;28;20034;-36
2021/11/28 08:18:44;;;;;;;1.83;0.60;;;;;;;;;;4974044;28;20064;-39
2021/11/28 08:21:11;;;;;;;1.52;0.70;;;;;;;;;;4974621;28;20085;-41
2021/11/28 08:23:39;;;;;;;2.22;0.68;;;;;;;;;;4974054;28;20058;-36
2021/11/28 08:26:06;;;;;;;2.15;0.52;;;;;;;;;;4973708;28;20524;-37
2021/11/28 08:28:33;;;;;;;2.42;0.70;;;;;;;;;;4973860;28;20031;-38
2021/11/28 08:31:00;;;;;;;0.90;0.60;;;;;;;;;;4974388;28;20073;-36
2021/11/28 08:33:27;;;;;;;3.42;0.70;;;;;;;;;;4973697;28;20023;-38
2021/11/28 08:35:54;;;;;;;1.50;0.70;;;;;;;;;;4973860;28;20521;-38
2021/11/28 08:38:21;;;;;;;2.08;0.70;;;;;;;;;;4974156;28;20049;-39
2021/11/28 08:40:49;;;;;;;4.15;0.73;;;;;;;;;;4973911;28;20026;-37
2021/11/28 08:43:16;;;;;;;0.82;0.55;;;;;;;;;;4974133;28;20399;-37
2021/11/28 08:45:43;;;;;;;7.55;1.00;;;;;;;;;;4972101;28;20043;-40
2021/11/28 08:48:10;;;;;;;2.28;1.10;;;;;;;;;;4973804;28;20094;-38
2021/11/28 08:50:37;;;;;;;3.55;1.55;;;;;;;;;;4973761;28;20435;-39
2021/11/28 08:53:04;;;;;;;3.10;1.50;;;;;;;;;;4974362;28;20493;-39
2021/11/28 08:55:33;;;;;;;4.97;1.40;;;;;;;;;;4973230;28;20023;-41
2021/11/28 08:58:00;;;;;;;4.22;1.10;;;;;;;;;;4973601;28;20042;-36
2021/11/28 09:00:27;;;;;;;2.28;1.10;;;;;;;;;;4988024;28;20026;-37
2021/11/28 09:02:54;;;;;;;3.58;1.10;;;;;;;;;;4973988;28;20031;-38
2021/11/28 09:05:24;;;;;;;2.25;1.02;;;;;;;;;;4973328;28;20039;-38
2021/11/28 09:07:51;;;;;;;2.83;1.02;;;;;;;;;;4972348;28;20051;-43
2021/11/28 09:10:19;;;;;;;3.33;1.00;;;;;;;;;;4973814;28;20034;-37
2021/11/28 09:12:46;;;;;;;2.75;1.00;;;;;;;;;;4973204;28;20435;-38
2021/11/28 09:15:14;;;;;;;3.22;0.80;;;;;;;;;;4973512;28;20029;-45
2021/11/28 09:17:47;;;;;;;3.45;1.08;;;;;;;;;;4972932;28;20023;-41
2021/11/28 09:20:17;;;;;;;2.88;0.73;;;;;;;;;;4973289;28;20026;-46
2021/11/28 09:25:15;;;;;;;2.47;1.08;;;;;;;;;;4973320;28;20049;-37
2021/11/28 09:27:42;;;;;;;2.40;0.80;;;;;;;;;;4972921;28;20023;-45
2021/11/28 09:30:10;;;;;;;2.28;1.00;;;;;;;;;;4972679;28;20097;-37
2021/11/28 09:32:37;;;;;;;1.48;0.80;;;;;;;;;;4973289;28;20435;-41
2021/11/28 09:35:04;;;;;;;2.78;1.05;;;;;;;;;;4972522;28;20030;-39
2021/11/28 09:37:31;;;;;;;4.93;1.10;;;;;;;;;;4972791;28;20030;-41
2021/11/28 09:39:58;;;;;;;5.57;1.15;;;;;;;;;;4972551;28;20073;-37
2021/11/28 09:42:37;;;;;;;6.03;1.30;;;;;;;;;;4973688;28;20043;-41
2021/11/28 09:45:05;;;;;;;3.33;1.13;;;;;;;;;;4972901;28;20085;-40
2021/11/28 09:47:33;;;;;;;2.83;1.30;;;;;;;;;;4972397;28;20478;-41
2021/11/28 09:50:03;;;;;;;1.77;1.20;;;;;;;;;;4972226;28;20070;-41
2021/11/28 09:52:30;;;;;;;2.22;1.05;;;;;;;;;;4973224;28;20085;-39
2021/11/28 09:54:58;;;;;;;4.78;1.20;;;;;;;;;;4972385;28;20490;-39
2021/11/28 09:57:25;;;;;;;3.78;1.10;;;;;;;;;;4971939;28;20142;-37
2021/11/28 09:59:53;;;;;;;3.28;0.95;;;;;;;;;;4972232;28;20033;-40
2021/11/28 10:02:23;;;;;;;2.92;1.27;;;;;;;;;;4979711;28;20039;-44
2021/11/28 10:04:50;;;;;;;5.68;1.05;;;;;;;;;;4970474;28;20093;-36
2021/11/28 10:07:17;;;;;;;6.65;1.10;;;;;;;;;;4970313;28;20661;-43
2021/11/28 10:09:44;;;;;;;4.93;1.13;;;;;;;;;;4970355;28;20070;-41
2021/11/28 10:12:22;;;;;;;4.20;1.60;;;;;;;;;;4970711;28;20033;-36
2021/11/28 10:14:51;;;;;;;2.60;1.15;;;;;;;;;;4970576;28;20034;-42
2021/11/28 10:17:18;;;;;;;2.95;1.30;;;;;;;;;;4970746;28;20038;-36
2021/11/28 10:19:45;;;;;;;6.45;1.30;;;;;;;;;;4985383;28;20486;-38
2021/11/28 10:22:12;;;;;;;3.45;1.30;;;;;;;;;;4970343;28;20035;-40
2021/11/28 10:25:04;;;;;;;3.28;0.90;;;;;;;;;;4970041;28;20038;-36
2021/11/28 10:27:33;;;;;;;2.03;0.98;;;;;;;;;;4970774;28;20030;-43
2021/11/28 10:30:00;;;;;;;4.40;1.27;;;;;;;;;;4969810;28;20419;-37
2021/11/28 10:32:27;;;;;;;1.85;1.00;;;;;;;;;;4970364;28;20034;-40
2021/11/28 10:34:54;;;;;;;2.85;1.08;;;;;;;;;;4968901;28;20027;-39
2021/11/28 10:37:22;;;;;;;5.90;1.00;;;;;;;;;;4970112;28;20030;-36
2021/11/28 10:39:50;;;;;;;3.08;1.10;;;;;;;;;;4969656;28;20103;-39
2021/11/28 10:42:22;;;;;;;7.15;1.27;;;;;;;;;;4970040;28;20023;-37
2021/11/28 10:45:18;;;;;;;4.68;1.25;;;;;;;;;;4969521;28;20058;-41
2021/11/28 10:47:49;;;;;;;2.35;0.80;;;;;;;;;;4965349;28;20082;-37
2021/11/28 10:50:30;;;;;;;2.28;0.75;;;;;;;;;;4969636;28;20031;-37
2021/11/28 10:53:11;;;;;;;4.05;0.93;;;;;;;;;;4970054;28;20051;-37
2021/11/28 10:55:42;;;;;;;4.90;0.60;;;;;;;;;;4969900;28;20103;-37
2021/11/28 10:58:12;;;;;;;4.70;0.70;;;;;;;;;;4969849;28;20030;-37
2021/11/28 11:00:41;;;;;;;2.83;0.82;;;;;;;;;;4968632;28;20093;-37
2021/11/28 11:03:27;;;;;;;4.97;0.88;;;;;;;;;;4970626;28;20035;-38
2021/11/28 11:05:58;;;;;;;6.43;1.30;;;;;;;;;;4969708;28;20031;-38
2021/11/28 11:08:25;;;;;;;1.73;0.60;;;;;;;;;;4968740;28;20035;-37
2021/11/28 11:11:06;;;;;;;2.72;0.70;;;;;;;;;;4969283;28;20034;-37
2021/11/28 11:13:33;;;;;;;5.45;1.05;;;;;;;;;;4969767;28;20019;-38
2021/11/28 11:16:03;;;;;;;2.42;0.70;;;;;;;;;;4969247;28;20063;-37
2021/11/28 11:18:30;;;;;;;2.95;0.80;;;;;;;;;;4969787;28;20058;-38
2021/11/28 11:21:04;;;;;;;3.08;0.70;;;;;;;;;;4968853;28;20030;-38
2021/11/28 11:23:42;;;;;;;1.50;0.50;;;;;;;;;;4984632;28;20034;-37
2021/11/28 11:26:17;;;;;;;5.95;0.70;;;;;;;;;;4969422;28;20035;-37
2021/11/28 11:28:59;;;;;;;2.63;0.80;;;;;;;;;;4969559;28;20076;-37
2021/11/28 11:31:26;;;;;;;1.60;0.50;;;;;;;;;;4969382;28;20015;-36
2021/11/28 11:33:53;;;;;;;3.03;0.40;;;;;;;;;;4969554;28;20029;-37
2021/11/28 11:36:20;;;;;;;2.70;0.63;;;;;;;;;;4968615;28;20073;-40
2021/11/28 11:38:48;;;;;;;6.40;0.85;;;;;;;;;;4969942;28;20034;-37
2021/11/28 11:41:15;;;;;;;6.38;0.80;;;;;;;;;;4968675;28;20023;-38
2021/11/28 11:43:42;;;;;;;2.25;0.60;;;;;;;;;;4969427;28;20030;-38
2021/11/28 11:46:09;;;;;;;3.35;0.65;;;;;;;;;;4969265;28;20054;-40
2021/11/28 11:48:36;;;;;;;1.52;0.50;;;;;;;;;;4968862;28;20110;-45
2021/11/28 11:51:04;;;;;;;4.20;0.60;;;;;;;;;;4969761;28;20030;-45
2021/11/28 11:53:32;;;;;;;2.70;1.05;;;;;;;;;;4968992;28;20027;-44
2021/11/28 11:55:59;;;;;;;2.15;0.55;;;;;;;;;;4969459;28;20491;-47
2021/11/28 11:58:40;;;;;;;1.70;0.50;;;;;;;;;;4968669;28;20023;-45
2021/11/28 12:01:07;;;;;;;4.63;0.73;;;;;;;;;;4983719;28;20499;-41
2021/11/28 12:03:46;;;;;;;4.57;0.90;;;;;;;;;;4968750;28;20085;-42
2021/11/28 12:06:13;;;;;;;3.53;0.80;;;;;;;;;;4969528;28;20038;-42
2021/11/28 12:08:50;;;;;;;5.90;0.70;;;;;;;;;;4968489;28;20015;-38
2021/11/28 12:11:19;;;;;;;4.22;0.80;;;;;;;;;;4969082;28;20487;-39
2021/11/28 12:13:46;;;;;;;6.85;0.88;;;;;;;;;;4968821;28;20578;-37
2021/11/28 12:16:12;;;;;;;3.90;0.90;;;;;;;;;;4968724;28;20436;-38
2021/11/28 12:18:48;;;;;;;5.60;0.95;;;;;;;;;;4969686;28;20074;-41
2021/11/28 12:21:15;;;;;;;3.72;1.05;;;;;;;;;;4972717;28;20051;-38
2021/11/28 12:23:53;;;;;;;8.40;1.08;;;;;;;;;;4972163;28;20085;-44
2021/11/28 12:26:30;;;;;;;5.28;1.00;;;;;;;;;;4972740;28;20030;-43
2021/11/28 12:29:16;;;;;;;4.20;1.10;;;;;;;;;;4972397;28;20015;-41
2021/11/28 12:31:48;;;;;;;2.25;0.88;;;;;;;;;;4972156;28;20081;-38
2021/11/28 12:34:15;;;;;;;5.17;1.00;;;;;;;;;;4972434;28;20445;-36
2021/11/28 12:36:43;;;;;;;4.15;1.02;;;;;;;;;;4972230;28;20016;-37
2021/11/28 12:39:10;;;;;;;3.38;0.90;;;;;;;;;;5168350;23;20123;-43
2021/11/28 12:41:46;;;;;;;6.35;1.10;;;;;;;;;;5031936;28;20025;-45
2021/11/28 12:44:13;;;;;;;6.43;1.08;;;;;;;;;;5028087;28;20068;-39
2021/11/28 12:46:41;;;;;;;6.78;1.10;;;;;;;;;;5032748;28;20029;-36
2021/11/28 12:49:28;;;;;;;4.10;1.17;;;;;;;;;;5032307;28;20025;-37
2021/11/28 12:51:56;;;;;;;5.07;1.10;;;;;;;;;;5031864;28;20025;-37
2021/11/28 12:54:30;;;;;;;4.07;0.80;;;;;;;;;;5026877;28;20034;-38
2021/11/28 12:57:15;;;;;;;3.42;0.82;;;;;;;;;;5032838;28;20029;-40
2021/11/28 12:59:42;;;;;;;9.10;1.48;;;;;;;;;;5032580;28;20443;-38
2021/11/28 13:02:09;;;;;;;3.30;0.80;;;;;;;;;;5031677;28;20052;-39
2021/11/28 13:04:42;;;;;;;7.68;1.30;;;;;;;;;;5027480;28;20105;-43
2021/11/28 13:07:26;;;;;;;4.47;1.10;;;;;;;;;;5032592;28;20021;-39
2021/11/28 13:09:57;;;;;;;7.05;1.25;;;;;;;;;;5032677;28;20068;-39
2021/11/28 13:12:28;;;;;;;4.00;1.20;;;;;;;;;;5031118;28;20047;-38
2021/11/28 13:14:55;;;;;;;5.32;1.45;;;;;;;;;;5015261;28;20083;-43
2021/11/28 13:17:23;;;;;;;6.00;1.33;;;;;;;;;;5032233;28;20021;-38
2021/11/28 13:19:50;;;;;;;6.55;1.27;;;;;;;;;;5021166;28;20022;-40
2021/11/28 13:22:18;;;;;;;4.15;1.10;;;;;;;;;;5014236;28;20014;-38
2021/11/28 13:24:45;;;;;;;6.25;1.30;;;;;;;;;;5010478;28;20014;-37
2021/11/28 13:27:12;;;;;;;7.57;1.23;;;;;;;;;;5014758;28;20366;-42
2021/11/28 13:29:52;;;;;;;5.00;1.10;;;;;;;;;;5010860;28;20025;-45
2021/11/28 13:32:19;;;;;;;4.63;1.25;;;;;;;;;;5022015;28;20674;-37
2021/11/28 13:34:46;;;;;;;7.15;1.52;;;;;;;;;;5003891;28;20018;-41
2021/11/28 13:37:20;;;;;;;9.48;1.30;;;;;;;;;;5018114;28;20026;-42
2021/11/28 13:39:47;;;;;;;6.50;1.30;;;;;;;;;;5021785;28;20037;-40
2021/11/28 13:42:17;;;;;;;6.45;1.48;;;;;;;;;;5028411;28;20018;-46
2021/11/28 13:44:45;;;;;;;7.57;1.38;;;;;;;;;;5031116;28;20029;-41
2021/11/28 13:47:12;;;;;;;4.78;1.23;;;;;;;;;;5030875;28;20033;-41
2021/11/28 13:49:50;;;;;;;4.10;1.17;;;;;;;;;;5030990;28;20021;-44
2021/11/28 13:52:22;;;;;;;7.70;1.23;;;;;;;;;;5030419;28;20495;-46
2021/11/28 13:54:49;;;;;;;;;;;;;;;;;;5031347;28;20033;-47
2021/11/28 13:57:21;;;;;;;6.75;1.33;;;;;;;;;;5030105;28;19909;-42
2021/11/28 13:59:53;;;;;;;5.63;1.38;;;;;;;;;;5031158;28;20372;-40
2021/11/28 14:02:25;;;;;;;5.47;1.30;;;;;;;;;;5029934;28;20469;-42
2021/11/28 14:05:01;;;;;;;10.98;1.55;;;;;;;;;;5029305;28;20037;-41
2021/11/28 14:07:36;;;;;;;5.57;1.30;;;;;;;;;;5029338;28;20496;-39
2021/11/28 14:10:12;;;;;;;7.63;1.55;;;;;;;;;;5012389;28;20021;-37
2021/11/28 14:12:40;;;;;;;6.75;1.30;;;;;;;;;;5029672;28;20069;-37
2021/11/28 14:15:14;;;;;;;7.72;1.13;;;;;;;;;;5030519;28;20029;-40
2021/11/28 14:17:42;;;;;;;6.40;1.27;;;;;;;;;;5029868;28;20097;-36
2021/11/28 14:20:13;;;;;;;5.78;1.42;;;;;;;;;;5029638;28;20021;-38
2021/11/28 14:22:54;;;;;;;5.80;1.20;;;;;;;;;;5029232;28;20054;-37
2021/11/28 14:25:32;;;;;;;3.65;1.13;;;;;;;;;;5030067;28;20033;-39
2021/11/28 14:28:34;;;;;;;5.97;1.33;;;;;;;;;;5029307;28;20029;-39
2021/11/28 14:31:05;;;;;;;8.30;1.08;;;;;;;;;;4969500;28;20041;-37
2021/11/28 14:33:34;;;;;;;7.18;1.33;;;;;;;;;;5003681;28;20042;-38
2021/11/28 14:36:04;;;;;;;4.38;1.48;;;;;;;;;;5028141;28;20029;-38
2021/11/28 14:38:38;;;;;;;5.47;1.23;;;;;;;;;;5029214;28;20075;-39
2021/11/28 14:41:08;;;;;;;6.18;1.63;;;;;;;;;;5030893;28;20064;-37
2021/11/28 14:43:37;;;;;;;7.03;1.50;;;;;;;;;;5029354;28;20516;-37
2021/11/28 14:46:08;;;;;;;7.00;1.65;;;;;;;;;;5030588;28;20041;-38
2021/11/28 14:48:35;;;;;;;7.20;1.50;;;;;;;;;;5029958;28;20025;-38
2021/11/28 14:51:02;;;;;;;5.63;1.30;;;;;;;;;;5029195;28;20025;-41
2021/11/28 14:53:29;;;;;;;6.28;1.73;;;;;;;;;;5010349;28;20113;-38
2021/11/28 14:55:57;;;;;;;11.10;3.97;;;;;;;;;;5029561;28;20033;-40